Terminal Aerodrome Forecast
Issued by NWS

Home | Current Version | Previous Version | Text Only | Print | Product List | Glossary On
Versions: 1 2 3 4 5 6 7 8 9 10 11 12 13 14 15 16 17 18 19 20 21 22 23 24 25
000
FTUS45 KBOU 170539
TAFBJC
TAF
KBJC 170539Z 1706/1806 27008KT P6SM SKC
      TEMPO 1706/1710 28016G24KT
     FM171000 25012KT P6SM SKC
     FM171400 VRB04KT P6SM FEW220
     FM171800 08008KT P6SM SCT220
     FM172300 15009KT P6SM SCT120 BKN200=

USA.gov is the U.S. government's official web portal to all federal, state and local government web resources and services.